Time;durP1;ratioP1;P1;durP2;ratioP2;P2;SDS_P1;SDS_P2;PMS_P1;PMS_P2;Temp;Humidity;BMP_temperature;BMP_pressure;BME280_temperature;BME280_humidity;BME280_pressure;Samples;Min_cycle;Max_cycle;Signal;HPM_P1;HPM_P2
2021/07/29 00:01:39;;;;;;;;;3.00;3.00;;;;;19.58;53.92;101254.94;4915151;28;46079;-85
2021/07/29 00:04:04;;;;;;;;;3.00;2.50;;;;;19.62;53.36;101251.13;4922408;28;45354;-84
2021/07/29 00:06:30;;;;;;;;;2.75;2.75;;;;;19.64;54.11;101259.00;4922462;28;45446;-85
2021/07/29 00:08:55;;;;;;;;;2.00;2.00;;;;;19.62;54.40;101245.78;4922566;28;45469;-84
2021/07/29 00:11:21;;;;;;;;;6.00;2.75;;;;;19.62;54.18;101258.25;4932984;28;45430;-81
2021/07/29 00:13:46;;;;;;;;;2.00;2.00;;;;;19.60;54.39;101257.50;4921947;28;46167;-81
2021/07/29 00:16:12;;;;;;;;;4.50;3.00;;;;;19.58;54.61;101257.63;4922055;28;45232;-81
2021/07/29 00:21:21;;;;;;;;;2.50;2.50;;;;;19.55;54.66;101261.31;4922108;28;45511;-81
2021/07/29 00:23:49;;;;;;;;;2.75;2.00;;;;;19.56;54.96;101260.34;4922116;28;46294;-83
2021/07/29 00:26:14;;;;;;;;;2.00;2.00;;;;;19.55;54.91;101256.00;4922389;28;45251;-86
2021/07/29 00:28:40;;;;;;;;;3.00;3.00;;;;;19.56;54.57;101256.81;4922488;28;45232;-78
2021/07/29 00:31:05;;;;;;;;;4.00;4.00;;;;;19.53;54.47;101259.72;4922138;28;46059;-93
2021/07/29 00:33:30;;;;;;;;;3.00;3.00;;;;;19.43;54.46;101251.44;4905995;28;47019;-84
2021/07/29 00:35:56;;;;;;;;;2.00;2.00;;;;;19.45;55.02;101260.19;4922213;28;45547;-82
2021/07/29 00:38:21;;;;;;;;;2.50;1.75;;;;;19.47;54.90;101255.59;4922247;28;45386;-83
2021/07/29 00:40:47;;;;;;;;;3.00;3.00;;;;;19.43;55.03;101246.09;4908318;28;47357;-86
2021/07/29 00:43:15;;;;;;;;;1.75;1.75;;;;;19.40;55.54;101251.63;4897169;28;47468;-84
2021/07/29 00:45:40;;;;;;;;;2.25;2.00;;;;;19.47;54.65;101252.09;4921535;28;45349;-81
2021/07/29 00:48:05;;;;;;;;;2.00;2.00;;;;;19.44;55.21;101250.47;4921868;28;45442;-81
2021/07/29 00:50:32;;;;;;;;;2.00;2.00;;;;;19.47;55.24;101260.06;4921937;28;45414;-81
2021/07/29 00:52:57;;;;;;;;;3.50;3.00;;;;;19.36;55.21;101242.94;4921778;28;46359;-82
2021/07/29 00:55:22;;;;;;;;;3.00;3.00;;;;;19.33;55.58;101259.97;4904673;28;45685;-82
2021/07/29 00:57:48;;;;;;;;;4.00;2.00;;;;;19.30;55.35;101252.19;4921905;28;45259;-82
2021/07/29 01:00:14;;;;;;;;;3.75;3.50;;;;;19.28;55.56;101242.59;4921888;28;45418;-82
2021/07/29 01:02:39;;;;;;;;;1.75;1.75;;;;;19.28;55.81;101253.25;4920735;28;46219;-82
2021/07/29 01:05:08;;;;;;;;;4.75;2.75;;;;;19.28;55.90;101247.91;4922851;28;45237;-81
2021/07/29 01:07:33;;;;;;;;;3.00;3.00;;;;;19.26;56.21;101250.66;4924893;28;45765;-81
2021/07/29 01:09:59;;;;;;;;;3.00;2.00;;;;;19.29;56.26;101250.47;4924549;28;45398;-81
2021/07/29 01:12:24;;;;;;;;;4.00;4.00;;;;;19.31;56.25;101245.91;4924667;28;45452;-83
2021/07/29 01:14:49;;;;;;;;;1.25;1.25;;;;;19.32;56.32;101249.44;4922779;28;45347;-83
2021/07/29 01:17:15;;;;;;;;;2.25;2.25;;;;;19.33;56.46;101251.97;4921612;28;45328;-82
2021/07/29 01:19:40;;;;;;;;;2.50;2.50;;;;;19.34;56.67;101250.19;4924668;28;45341;-81
2021/07/29 01:22:06;;;;;;;;;3.75;3.25;;;;;19.37;55.91;101258.00;4924577;28;45362;-78
2021/07/29 01:24:31;;;;;;;;;3.00;3.00;;;;;19.43;56.29;101256.75;4924281;28;45295;-78
2021/07/29 01:26:56;;;;;;;;;6.50;3.50;;;;;19.48;56.40;101260.00;4920561;28;45360;-78
2021/07/29 01:29:22;;;;;;;;;2.75;2.75;;;;;19.54;56.71;101267.59;4924524;28;45653;-80
2021/07/29 01:31:47;;;;;;;;;2.75;2.75;;;;;19.51;56.04;101264.25;4923833;28;46311;-78
2021/07/29 01:34:14;;;;;;;;;2.00;2.00;;;;;19.43;56.33;101265.59;4924383;28;45265;-80
2021/07/29 01:36:39;;;;;;;;;3.00;3.00;;;;;19.44;56.56;101261.13;4923946;28;45398;-78
2021/07/29 01:39:04;;;;;;;;;2.50;2.50;;;;;19.43;56.01;101268.25;4924465;28;45216;-81
2021/07/29 01:41:30;;;;;;;;;3.00;3.00;;;;;19.37;56.44;101266.00;4924505;28;46448;-81
2021/07/29 01:43:55;;;;;;;;;3.00;3.00;;;;;19.39;56.74;101276.53;4920182;28;45155;-84
2021/07/29 01:46:21;;;;;;;;;2.75;2.75;;;;;19.32;56.49;101265.41;4922723;28;45281;-82
2021/07/29 01:48:46;;;;;;;;;3.25;3.25;;;;;19.31;56.70;101264.56;4906104;28;46777;-87
2021/07/29 01:51:12;;;;;;;;;2.00;2.00;;;;;19.30;56.46;101272.66;4923605;28;46284;-87
2021/07/29 01:53:37;;;;;;;;;4.25;2.00;;;;;19.23;56.11;101266.84;4907053;28;45358;-79
2021/07/29 01:56:07;;;;;;;;;3.00;3.00;;;;;19.17;57.04;101273.41;4923924;28;45287;-79
2021/07/29 01:58:32;;;;;;;;;2.00;2.00;;;;;19.17;56.68;101276.06;4923642;28;45537;-80
2021/07/29 02:00:57;;;;;;;;;3.75;3.75;;;;;19.16;57.27;101284.97;4924086;28;45469;-80
2021/07/29 02:03:23;;;;;;;;;4.50;3.75;;;;;19.16;57.44;101274.31;4923724;28;45304;-80
2021/07/29 02:05:48;;;;;;;;;2.75;2.00;;;;;19.23;57.55;101277.50;4924124;28;45311;-79
2021/07/29 02:08:13;;;;;;;;;3.50;2.75;;;;;19.28;57.05;101272.75;4924105;28;45645;-80
2021/07/29 02:10:38;;;;;;;;;4.25;3.00;;;;;19.29;57.29;101276.25;4929554;28;45423;-80
2021/07/29 02:13:04;;;;;;;;;2.00;2.00;;;;;19.33;57.05;101275.97;4906822;28;45793;-80
2021/07/29 02:15:30;;;;;;;;;3.50;2.50;;;;;19.36;56.71;101279.41;4923284;28;45260;-79
2021/07/29 02:17:57;;;;;;;;;3.25;3.25;;;;;19.36;57.01;101282.91;4923200;28;45319;-80
2021/07/29 02:20:22;;;;;;;;;4.00;3.00;;;;;19.30;57.33;101276.19;4923560;28;45533;-81
2021/07/29 02:22:48;;;;;;;;;2.00;2.00;;;;;19.31;57.38;101275.22;4924018;28;45425;-81
2021/07/29 02:25:13;;;;;;;;;4.00;3.00;;;;;19.29;57.26;101279.78;4923904;28;45336;-78
2021/07/29 02:27:39;;;;;;;;;3.50;3.00;;;;;19.26;57.19;101279.13;4923526;28;45400;-79
2021/07/29 02:30:05;;;;;;;;;4.00;4.00;;;;;19.19;57.27;101283.97;4923293;28;46449;-81
2021/07/29 02:32:30;;;;;;;;;4.25;4.00;;;;;19.06;57.27;101276.69;4922747;28;45615;-78
2021/07/29 02:34:56;;;;;;;;;1.75;1.75;;;;;19.02;57.32;101283.16;4923755;28;45411;-81
2021/07/29 02:37:22;;;;;;;;;3.00;3.00;;;;;18.99;57.60;101283.31;4923407;28;45753;-85
2021/07/29 02:39:48;;;;;;;;;3.75;3.75;;;;;19.00;58.14;101285.06;4923635;28;46583;-77
2021/07/29 02:42:14;;;;;;;;;4.00;3.00;;;;;18.99;57.71;101284.19;4923144;28;45218;-76
2021/07/29 02:44:40;;;;;;;;;2.50;2.50;;;;;18.93;57.78;101295.22;4923502;28;45234;-76
2021/07/29 02:47:05;;;;;;;;;4.00;4.00;;;;;18.85;58.02;101282.38;4922570;28;45192;-80
2021/07/29 02:49:31;;;;;;;;;4.00;2.00;;;;;18.89;58.59;101283.03;4922000;28;48068;-81
2021/07/29 02:51:56;;;;;;;;;4.00;1.00;;;;;18.94;58.33;101290.78;4923476;28;45588;-80
2021/07/29 02:54:21;;;;;;;;;3.50;3.50;;;;;18.92;58.49;101287.31;4923277;28;45349;-80
2021/07/29 02:56:47;;;;;;;;;2.00;2.00;;;;;18.92;58.26;101280.19;4906057;28;45303;-80
2021/07/29 02:59:12;;;;;;;;;3.00;3.00;;;;;18.95;58.52;101284.47;4905991;28;47185;-80
2021/07/29 03:01:37;;;;;;;;;1.75;1.75;;;;;18.94;58.19;101294.25;4922983;28;45277;-80
2021/07/29 03:04:03;;;;;;;;;3.00;3.00;;;;;18.96;58.52;101296.84;4905721;28;45356;-80
2021/07/29 03:06:28;;;;;;;;;2.75;2.00;;;;;18.94;58.32;101299.59;4930846;28;46118;-80
2021/07/29 03:08:54;;;;;;;;;5.25;5.00;;;;;18.85;58.16;101293.03;4922695;28;45551;-80
2021/07/29 03:11:19;;;;;;;;;2.50;2.50;;;;;18.82;58.76;101303.84;4931387;28;45393;-80
2021/07/29 03:13:45;;;;;;;;;3.00;2.00;;;;;18.76;59.04;101307.75;4922967;28;45412;-78
2021/07/29 03:16:11;;;;;;;;;2.50;2.50;;;;;18.72;58.62;101294.69;4922398;28;45413;-78
2021/07/29 03:18:36;;;;;;;;;3.00;3.00;;;;;18.74;59.10;101298.97;4905410;28;48028;-79
2021/07/29 03:21:01;;;;;;;;;5.00;3.00;;;;;18.70;59.63;101299.25;4922843;28;45256;-79
2021/07/29 03:23:27;;;;;;;;;5.25;3.00;;;;;18.65;59.61;101300.38;4923243;28;45440;-80
2021/07/29 03:25:53;;;;;;;;;7.25;3.00;;;;;18.63;59.59;101302.28;4922587;28;45478;-80
2021/07/29 03:28:19;;;;;;;;;3.00;3.00;;;;;18.64;59.24;101297.81;4921472;28;46364;-84
2021/07/29 03:30:45;;;;;;;;;3.00;2.75;;;;;18.57;59.10;101291.13;4922692;28;45276;-85
2021/07/29 03:33:11;;;;;;;;;4.75;2.25;;;;;18.54;59.54;101293.00;4922622;28;45228;-83
2021/07/29 03:35:38;;;;;;;;;4.25;3.00;;;;;18.57;59.33;101296.47;4922351;28;45342;-80
2021/07/29 03:38:04;;;;;;;;;2.00;2.00;;;;;18.57;59.55;101299.97;4922400;28;46305;-86
2021/07/29 03:40:29;;;;;;;;;4.00;3.25;;;;;18.58;60.11;101299.03;4922840;28;45258;-78
2021/07/29 03:42:56;;;;;;;;;4.00;2.00;;;;;18.60;59.62;101301.59;4921714;28;45313;-79
2021/07/29 03:45:22;;;;;;;;;3.00;2.00;;;;;18.57;59.42;101302.63;4922082;28;45389;-82
2021/07/29 03:47:47;;;;;;;;;3.25;3.00;;;;;18.57;59.42;101304.44;4921616;28;45403;-78
2021/07/29 03:50:12;;;;;;;;;2.00;2.00;;;;;18.55;59.54;101300.06;4922503;28;45280;-77
2021/07/29 03:52:38;;;;;;;;;4.00;2.75;;;;;18.52;59.54;101305.56;4922847;28;45255;-76
2021/07/29 03:55:05;;;;;;;;;4.75;3.50;;;;;18.49;60.50;101310.22;4922346;28;45165;-82
2021/07/29 03:57:31;;;;;;;;;4.00;4.00;;;;;18.40;59.99;101307.13;4921938;28;45420;-78
2021/07/29 03:59:56;;;;;;;;;5.25;3.50;;;;;18.36;59.96;101316.25;4922653;28;45287;-80
2021/07/29 04:02:22;;;;;;;;;6.00;2.50;;;;;18.29;60.47;101314.88;4921932;28;45444;-80
2021/07/29 04:04:47;;;;;;;;;3.50;3.50;;;;;18.28;60.80;101307.81;4922014;28;45406;-79
2021/07/29 04:07:12;;;;;;;;;4.00;4.00;;;;;18.28;60.34;101319.34;4922119;28;46117;-79
2021/07/29 04:09:38;;;;;;;;;3.50;3.50;;;;;18.21;60.26;101317.97;4922008;28;45421;-83
2021/07/29 04:12:04;;;;;;;;;3.00;3.00;;;;;18.15;60.82;101308.47;4905292;28;45418;-83
2021/07/29 04:14:29;;;;;;;;;3.00;3.00;;;;;18.10;61.03;101307.88;4921781;28;45513;-83
2021/07/29 04:16:55;;;;;;;;;2.75;2.75;;;;;18.21;61.46;101316.16;4901904;28;47248;-82
2021/07/29 04:19:21;;;;;;;;;2.75;2.75;;;;;18.28;60.78;101318.47;4920938;28;45705;-81
2021/07/29 04:21:47;;;;;;;;;4.50;3.00;;;;;18.24;60.97;101322.25;4922328;28;45297;-80
2021/07/29 04:24:13;;;;;;;;;4.00;4.00;;;;;18.17;60.98;101324.38;4922107;28;45397;-81
2021/07/29 04:26:40;;;;;;;;;3.00;3.00;;;;;18.16;61.45;101315.53;4921599;28;45569;-81
2021/07/29 04:29:06;;;;;;;;;4.25;3.75;;;;;18.14;61.42;101322.75;4922091;28;45587;-86
2021/07/29 04:31:31;;;;;;;;;3.00;3.00;;;;;18.14;61.35;101320.09;4921793;28;45509;-81
2021/07/29 04:33:57;;;;;;;;;5.75;2.75;;;;;18.15;61.46;101326.28;4919558;28;46039;-81
2021/07/29 04:36:22;;;;;;;;;4.00;2.75;;;;;18.12;61.50;101327.31;4921690;28;46184;-80
2021/07/29 04:38:47;;;;;;;;;2.50;2.50;;;;;18.18;61.53;101328.72;4922933;28;45414;-81
2021/07/29 04:41:13;;;;;;;;;2.50;1.75;;;;;18.24;61.65;101324.91;4925729;28;45323;-89
2021/07/29 04:43:38;;;;;;;;;3.00;3.00;;;;;18.22;61.75;101325.84;4923768;28;47312;-81
2021/07/29 04:46:03;;;;;;;;;5.00;5.00;;;;;18.22;61.77;101319.69;4923374;28;47972;-81
2021/07/29 04:48:32;;;;;;;;;3.50;3.25;;;;;18.24;61.64;101320.47;4924941;28;45336;-73
2021/07/29 04:51:02;;;;;;;;;2.00;2.00;;;;;18.26;61.44;101325.69;4924824;28;45440;-75
2021/07/29 04:53:28;;;;;;;;;4.00;3.00;;;;;18.34;61.40;101318.13;4924493;28;45324;-75
2021/07/29 04:55:53;;;;;;;;;2.00;2.00;;;;;18.36;61.58;101316.25;4924312;28;46245;-75
2021/07/29 04:58:19;;;;;;;;;3.00;3.00;;;;;18.36;61.66;101316.25;4924684;28;45312;-75
2021/07/29 05:00:44;;;;;;;;;3.25;3.25;;;;;18.47;61.52;101323.59;4924785;28;45435;-75
2021/07/29 05:03:09;;;;;;;;;4.00;3.00;;;;;18.58;61.46;101322.97;4924611;28;45517;-75
2021/07/29 05:05:35;;;;;;;;;2.50;2.50;;;;;18.66;61.57;101322.53;4924663;28;45666;-75
2021/07/29 05:08:00;;;;;;;;;3.25;3.25;;;;;18.79;61.17;101328.03;4924927;28;45355;-75
2021/07/29 05:10:25;;;;;;;;;3.25;3.00;;;;;18.78;61.13;101327.16;4929095;28;45505;-75
2021/07/29 05:12:51;;;;;;;;;3.00;3.00;;;;;18.68;60.95;101331.28;4925989;28;45456;-75
2021/07/29 05:15:16;;;;;;;;;4.00;3.00;;;;;18.60;61.36;101336.19;4924533;28;45485;-75
2021/07/29 05:17:41;;;;;;;;;3.00;3.00;;;;;18.52;61.50;101340.16;4924719;28;45262;-75
2021/07/29 05:20:10;;;;;;;;;4.25;3.75;;;;;18.47;61.27;101330.75;4923711;28;45473;-75
2021/07/29 05:22:35;;;;;;;;;4.00;3.00;;;;;18.48;61.66;101333.31;4924941;28;45537;-75
2021/07/29 05:25:00;;;;;;;;;2.75;2.75;;;;;18.47;61.24;101331.56;4924641;28;46273;-75
2021/07/29 05:27:26;;;;;;;;;5.00;5.00;;;;;18.48;61.75;101330.66;4924890;28;45205;-75
2021/07/29 05:29:51;;;;;;;;;3.00;1.50;;;;;18.48;61.27;101335.09;4924644;28;45140;-75
2021/07/29 05:32:16;;;;;;;;;4.50;3.00;;;;;18.44;61.93;101342.41;4923853;28;45259;-75
2021/07/29 05:34:41;;;;;;;;;4.00;3.00;;;;;18.39;61.51;101347.13;4929210;28;45391;-75
2021/07/29 05:37:07;;;;;;;;;4.00;3.00;;;;;18.36;61.86;101342.84;4927501;28;45961;-75
2021/07/29 05:39:33;;;;;;;;;2.25;2.25;;;;;18.37;61.97;101349.88;4933029;28;45430;-75
2021/07/29 05:41:58;;;;;;;;;3.00;3.00;;;;;18.43;62.11;101349.53;4939095;28;45323;-75
2021/07/29 05:44:24;;;;;;;;;4.25;3.75;;;;;18.54;61.88;101348.06;4926357;28;46191;-75
2021/07/29 05:46:49;;;;;;;;;2.50;2.50;;;;;18.60;61.49;101353.03;4906611;28;45423;-75
2021/07/29 05:49:14;;;;;;;;;5.00;4.00;;;;;18.52;61.42;101352.63;4924392;28;45315;-75
2021/07/29 05:51:40;;;;;;;;;3.50;3.00;;;;;18.42;61.64;101358.44;4923792;28;45437;-75
2021/07/29 05:54:05;;;;;;;;;3.00;2.25;;;;;18.42;61.70;101358.44;4924238;28;46665;-75
2021/07/29 05:56:31;;;;;;;;;4.00;4.00;;;;;18.43;61.55;101359.31;4922634;28;45362;-75
2021/07/29 05:58:56;;;;;;;;;4.75;3.25;;;;;18.38;61.59;101356.06;4923816;28;45430;-75
2021/07/29 06:01:22;;;;;;;;;3.50;3.50;;;;;18.29;61.92;101353.00;4909595;28;45511;-75
2021/07/29 06:03:48;;;;;;;;;3.00;3.00;;;;;18.30;61.90;101349.38;4925018;28;45427;-75
2021/07/29 06:06:13;;;;;;;;;2.00;2.00;;;;;18.35;62.18;101346.44;4921339;28;45504;-75
2021/07/29 06:08:38;;;;;;;;;5.00;3.00;;;;;18.33;62.00;101346.53;4921687;28;46304;-75
2021/07/29 06:11:04;;;;;;;;;6.00;4.00;;;;;18.37;62.38;101349.88;4904105;28;47004;-75
2021/07/29 06:13:30;;;;;;;;;2.25;2.25;;;;;18.37;61.73;101347.22;4918957;28;45534;-75
2021/07/29 06:15:56;;;;;;;;;6.50;4.50;;;;;18.37;62.33;101352.53;4921828;28;45430;-75
2021/07/29 06:18:23;;;;;;;;;2.50;2.00;;;;;18.39;61.95;101348.00;4922619;28;45335;-75
2021/07/29 06:20:49;;;;;;;;;4.00;3.75;;;;;18.38;62.33;101362.25;4921406;28;45511;-75
2021/07/29 06:23:14;;;;;;;;;4.00;2.75;;;;;18.37;62.63;101363.16;4921061;28;46406;-75
2021/07/29 06:25:40;;;;;;;;;3.00;3.00;;;;;18.40;62.19;101365.66;4921735;28;45303;-75
2021/07/29 06:28:12;;;;;;;;;4.50;3.25;;;;;18.48;61.72;101365.25;4921920;28;45717;-76
2021/07/29 06:30:37;;;;;;;;;3.25;3.25;;;;;18.55;62.24;101369.28;4920474;28;46180;-75
2021/07/29 06:33:03;;;;;;;;;7.25;4.00;;;;;18.62;61.84;101369.78;4922237;28;46776;-75
2021/07/29 06:35:29;;;;;;;;;5.75;4.75;;;;;18.60;61.52;101374.31;4921941;28;45303;-75
2021/07/29 06:37:56;;;;;;;;;4.25;2.00;;;;;18.55;61.64;101381.72;4904848;28;45406;-75
2021/07/29 06:40:21;;;;;;;;;2.50;2.50;;;;;18.55;61.91;101384.38;4916140;28;45400;-75
2021/07/29 06:42:47;;;;;;;;;3.00;3.00;;;;;18.59;62.27;101377.09;4921473;28;45222;-75
2021/07/29 06:45:12;;;;;;;;;3.25;3.00;;;;;18.60;61.62;101382.31;4921959;28;45195;-75
2021/07/29 06:47:37;;;;;;;;;3.00;3.00;;;;;18.62;61.94;101385.75;4922148;28;45235;-75
2021/07/29 06:50:07;;;;;;;;;1.75;1.75;;;;;18.63;62.06;101384.81;4922232;28;45237;-75
2021/07/29 06:52:32;;;;;;;;;6.00;3.00;;;;;18.63;61.98;101376.81;4904994;28;48323;-75
2021/07/29 06:54:57;;;;;;;;;4.00;3.75;;;;;18.62;61.47;101383.06;4920984;28;45279;-76
2021/07/29 06:57:23;;;;;;;;;2.75;2.00;;;;;18.62;61.67;101385.75;4921753;28;45422;-76
2021/07/29 06:59:48;;;;;;;;;3.00;2.00;;;;;18.69;62.11;101388.06;4921457;28;45625;-75
2021/07/29 07:02:14;;;;;;;;;4.00;3.00;;;;;18.73;61.54;101400.25;4876621;28;1114857;-75
2021/07/29 07:04:39;;;;;;;;;3.25;2.50;;;;;18.70;61.21;101401.28;4915658;28;45310;-74
2021/07/29 07:07:04;;;;;;;;;3.25;3.25;;;;;18.72;61.90;101396.72;4922961;28;45538;-75
2021/07/29 07:09:32;;;;;;;;;3.00;3.00;;;;;18.78;61.74;101401.72;4923074;28;45496;-75
2021/07/29 07:11:57;;;;;;;;;3.25;3.25;;;;;18.84;61.30;101400.47;4922917;28;47686;-75
2021/07/29 07:14:24;;;;;;;;;4.50;4.50;;;;;18.91;61.26;101406.34;4920777;28;47072;-75
2021/07/29 07:16:49;;;;;;;;;3.75;3.75;;;;;18.96;61.10;101406.06;4922507;28;45372;-75
2021/07/29 07:19:15;;;;;;;;;5.00;4.00;;;;;18.96;61.06;101406.06;4922834;28;45366;-75
2021/07/29 07:21:40;;;;;;;;;4.00;4.00;;;;;18.93;61.08;101408.91;4922787;28;45268;-75
2021/07/29 07:24:06;;;;;;;;;3.50;2.00;;;;;18.95;61.12;101412.31;4905657;28;45698;-75
2021/07/29 07:26:32;;;;;;;;;3.25;3.00;;;;;19.00;61.15;101415.56;4921712;28;45561;-76
2021/07/29 07:28:57;;;;;;;;;4.00;2.50;;;;;19.03;60.83;101415.41;4920745;28;45596;-75
2021/07/29 07:31:22;;;;;;;;;4.00;3.50;;;;;19.14;61.02;101413.94;4922421;28;46208;-75
2021/07/29 07:33:48;;;;;;;;;3.25;3.25;;;;;19.18;61.50;101419.00;4922786;28;45357;-76
2021/07/29 07:36:16;;;;;;;;;5.00;3.00;;;;;19.15;60.66;101412.97;4923058;28;45280;-75
2021/07/29 07:38:42;;;;;;;;;3.25;2.25;;;;;19.11;61.16;101413.13;4922238;28;45388;-75
2021/07/29 07:41:09;;;;;;;;;4.75;3.00;;;;;19.19;61.10;101409.19;4905598;28;47967;-75
2021/07/29 07:43:35;;;;;;;;;4.50;4.50;;;;;19.23;61.55;101408.94;4905386;28;45505;-75
2021/07/29 07:46:02;;;;;;;;;6.75;4.50;;;;;19.27;60.68;101411.41;4916009;28;45514;-75
2021/07/29 07:48:27;;;;;;;;;3.50;2.50;;;;;19.30;60.50;101414.75;4921901;28;45381;-75
2021/07/29 07:50:56;;;;;;;;;3.25;2.00;;;;;19.31;60.45;101416.47;4921339;28;45481;-75
2021/07/29 07:53:26;;;;;;;;;3.75;3.75;;;;;19.27;60.46;101403.41;4922328;28;45224;-75
2021/07/29 07:55:52;;;;;;;;;5.00;5.00;;;;;19.28;59.89;101408.66;4921639;28;45504;-75
2021/07/29 07:58:18;;;;;;;;;2.75;2.75;;;;;19.24;59.61;101409.78;4924153;28;45310;-75
2021/07/29 08:00:43;;;;;;;;;2.00;2.00;;;;;19.22;60.36;101417.00;4922237;28;46432;-75
2021/07/29 08:03:08;;;;;;;;;4.75;4.50;;;;;19.30;60.40;101417.44;4921359;28;45354;-76
2021/07/29 08:05:34;;;;;;;;;4.00;4.00;;;;;19.38;60.14;101402.78;4921428;28;45469;-76
2021/07/29 08:08:00;;;;;;;;;5.50;4.25;;;;;19.43;58.87;101408.69;4921344;28;45472;-76
2021/07/29 08:10:27;;;;;;;;;3.25;3.25;;;;;19.41;59.52;101403.44;4921175;28;46192;-76
2021/07/29 08:12:53;;;;;;;;;3.00;3.00;;;;;19.48;59.80;101413.75;4921570;28;45256;-76
2021/07/29 08:15:18;;;;;;;;;5.00;5.00;;;;;19.58;59.62;101408.72;4903217;28;45791;-77
2021/07/29 08:17:44;;;;;;;;;4.00;4.00;;;;;19.62;59.14;101404.91;4921893;28;45267;-77
2021/07/29 08:20:09;;;;;;;;;4.00;4.00;;;;;19.66;59.72;101411.75;4922250;28;46152;-77
2021/07/29 08:22:35;;;;;;;;;3.75;3.50;;;;;19.71;59.38;101403.47;4921639;28;45204;-76
2021/07/29 08:25:00;;;;;;;;;3.00;3.00;;;;;19.77;58.60;101403.97;4904656;28;45305;-75
2021/07/29 08:27:25;;;;;;;;;3.50;2.25;;;;;19.77;57.66;101409.31;4921764;28;45496;-75
2021/07/29 08:29:51;;;;;;;;;3.00;3.00;;;;;19.73;57.40;101401.59;4920270;28;45415;-75
2021/07/29 08:32:16;;;;;;;;;3.00;3.00;;;;;19.71;57.40;101399.00;4920894;28;45532;-75
2021/07/29 08:34:41;;;;;;;;;4.25;4.25;;;;;19.70;57.75;101393.78;4921901;28;45452;-75
2021/07/29 08:37:07;;;;;;;;;3.00;2.50;;;;;19.72;56.62;101397.19;4920692;28;45579;-75
2021/07/29 08:39:32;;;;;;;;;3.00;2.25;;;;;19.74;56.44;101390.81;4919885;28;46366;-75
2021/07/29 08:41:57;;;;;;;;;2.25;2.25;;;;;19.79;56.62;101398.53;4922087;28;45346;-75
2021/07/29 08:44:23;;;;;;;;;2.00;2.00;;;;;19.83;56.68;101397.38;4921820;28;45276;-75
2021/07/29 08:46:49;;;;;;;;;3.00;3.00;;;;;19.89;56.44;101394.34;4904006;28;45498;-75
2021/07/29 08:49:15;;;;;;;;;3.50;2.00;;;;;19.92;55.57;101387.09;4921495;28;46818;-75
2021/07/29 08:51:41;;;;;;;;;4.50;3.00;;;;;19.96;54.47;101402.81;4921508;28;45646;-75
2021/07/29 08:54:08;;;;;;;;;5.00;3.00;;;;;19.96;54.37;101399.28;4922204;28;45454;-75
2021/07/29 08:56:34;;;;;;;;;4.00;2.75;;;;;19.99;54.74;101404.44;4921277;28;45260;-75
2021/07/29 08:59:00;;;;;;;;;5.00;3.00;;;;;20.00;54.78;101404.31;4921694;28;45264;-75
2021/07/29 09:01:45;;;;;;;;;4.25;3.25;;;;;20.04;55.17;101398.81;4917338;28;46730;-75
2021/07/29 09:04:13;;;;;;;;;3.00;3.00;;;;;20.01;53.67;101390.03;4920765;28;45225;-75
2021/07/29 09:06:57;;;;;;;;;2.75;2.50;;;;;20.02;54.50;101391.78;4921868;28;45403;-75
2021/07/29 09:09:45;;;;;;;;;2.00;2.00;;;;;20.06;55.18;101395.09;4921291;28;45411;-75
2021/07/29 09:12:24;;;;;;;;;3.00;3.00;;;;;20.10;54.93;101393.94;4920514;28;45393;-75
2021/07/29 09:14:51;;;;;;;;;3.25;2.75;;;;;20.13;54.61;101398.25;4921675;28;45470;-75
2021/07/29 09:17:18;;;;;;;;;2.25;2.25;;;;;20.15;53.93;101390.16;4920030;28;45463;-75
2021/07/29 09:19:54;;;;;;;;;3.00;2.75;;;;;20.16;54.27;101395.38;4921090;28;46513;-75
2021/07/29 09:22:20;;;;;;;;;3.25;3.25;;;;;20.18;53.80;101390.81;4921312;28;45375;-75
2021/07/29 09:24:56;;;;;;;;;5.25;3.00;;;;;20.17;52.54;101394.44;4921317;28;45380;-75
2021/07/29 09:27:22;;;;;;;;;3.00;3.00;;;;;20.16;52.71;101391.84;4924166;28;45474;-75
2021/07/29 09:29:48;;;;;;;;;3.00;2.00;;;;;20.17;52.27;101388.25;4924497;28;47318;-75
2021/07/29 09:32:16;;;;;;;;;4.00;4.00;;;;;20.16;53.22;101386.53;4924278;28;45232;-75
2021/07/29 09:34:46;;;;;;;;;4.50;4.50;;;;;20.15;53.38;101385.66;4924757;28;45276;-75
2021/07/29 09:37:12;;;;;;;;;3.00;2.75;;;;;20.12;52.93;101378.69;4920974;28;45852;-75
2021/07/29 09:39:38;;;;;;;;;2.00;2.00;;;;;20.10;53.04;101391.25;4923698;28;45480;-75
2021/07/29 09:42:22;;;;;;;;;4.00;2.75;;;;;20.11;53.25;101384.16;4924527;28;45294;-75
2021/07/29 09:44:52;;;;;;;;;2.00;2.00;;;;;20.10;52.47;101383.25;4924492;28;45291;-75
2021/07/29 09:47:19;;;;;;;;;4.00;2.00;;;;;20.06;51.89;101394.22;4923240;28;45356;-75
2021/07/29 09:49:45;;;;;;;;;3.25;3.00;;;;;20.03;52.73;101381.94;4923019;28;46131;-75
2021/07/29 09:52:11;;;;;;;;;3.75;2.00;;;;;20.00;51.88;101377.63;4924440;28;45347;-75
2021/07/29 09:54:38;;;;;;;;;3.50;3.50;;;;;19.99;52.41;101381.28;4923981;28;45465;-75
2021/07/29 09:57:06;;;;;;;;;6.00;3.00;;;;;19.99;52.42;101381.28;4923862;28;45476;-75
2021/07/29 09:59:32;;;;;;;;;5.50;3.00;;;;;20.00;53.41;101372.31;4923463;28;45375;-75
2021/07/29 10:02:01;;;;;;;;;3.00;2.00;;;;;20.04;53.64;101377.47;4923746;28;45823;-75
2021/07/29 10:04:52;;;;;;;;;5.25;3.75;;;;;20.06;51.90;101375.53;4923894;28;45402;-75
2021/07/29 10:07:31;;;;;;;;;2.00;2.00;;;;;20.04;51.35;101372.97;4921467;28;45498;-75
2021/07/29 10:09:59;;;;;;;;;3.50;2.00;;;;;19.99;52.33;101378.63;4931152;28;48394;-75
2021/07/29 10:12:29;;;;;;;;;5.00;3.00;;;;;20.02;52.20;101373.09;4922730;28;45603;-75
2021/07/29 10:14:55;;;;;;;;;2.00;1.50;;;;;20.08;51.40;101370.97;4906838;28;45285;-75
2021/07/29 10:17:36;;;;;;;;;2.00;2.00;;;;;20.15;51.24;101369.66;4921532;28;46356;-75
2021/07/29 10:20:19;;;;;;;;;2.25;2.00;;;;;20.22;50.13;101365.63;4913579;28;46423;-75
2021/07/29 10:23:07;;;;;;;;;3.25;3.00;;;;;20.27;51.28;101362.69;4923804;28;45354;-75
2021/07/29 10:25:52;;;;;;;;;3.00;3.00;;;;;20.40;50.30;101359.19;4912041;28;45395;-75
2021/07/29 10:28:25;;;;;;;;;2.75;2.75;;;;;20.50;50.33;101371.00;4906332;28;46066;-75
2021/07/29 10:30:53;;;;;;;;;3.00;3.00;;;;;20.58;49.95;101362.47;4923321;28;45644;-75
2021/07/29 10:33:19;;;;;;;;;2.25;2.25;;;;;20.66;50.10;101357.50;4922963;28;45473;-75
2021/07/29 10:35:44;;;;;;;;;2.00;2.00;;;;;20.75;50.26;101356.00;4923624;28;45352;-75
2021/07/29 10:38:10;;;;;;;;;2.00;2.00;;;;;20.87;50.14;101356.13;4923326;28;45474;-75
2021/07/29 10:40:37;;;;;;;;;1.00;1.00;;;;;20.96;49.78;101342.19;4923671;28;45312;-75
2021/07/29 10:43:25;;;;;;;;;2.00;2.00;;;;;21.06;51.02;101339.78;4905978;28;45927;-75
2021/07/29 10:45:54;;;;;;;;;2.75;1.25;;;;;21.14;50.30;101340.09;4922804;28;45530;-75
2021/07/29 10:48:46;;;;;;;;;3.00;2.50;;;;;21.26;50.64;101337.50;4923035;28;45405;-75
2021/07/29 10:51:18;;;;;;;;;6.00;3.00;;;;;21.32;49.88;101347.78;4922932;28;45345;-75
2021/07/29 10:53:48;;;;;;;;;2.00;2.00;;;;;21.38;49.41;101345.66;4923194;28;46059;-75
2021/07/29 10:56:20;;;;;;;;;2.75;2.75;;;;;21.42;48.91;101348.00;4923177;28;45422;-75
2021/07/29 10:58:50;;;;;;;;;3.25;3.00;;;;;21.45;48.89;101346.94;4928181;28;46164;-75
2021/07/29 11:01:18;;;;;;;;;0.75;0.75;;;;;21.48;48.47;101344.06;4922269;28;45367;-75
2021/07/29 11:03:54;;;;;;;;;1.00;1.00;;;;;21.45;47.61;101349.63;4919125;28;45890;-75
2021/07/29 11:06:39;;;;;;;;;2.00;2.00;;;;;21.49;47.82;101345.75;4922251;28;46389;-74
2021/07/29 11:09:14;;;;;;;;;2.75;2.00;;;;;21.53;45.30;101347.25;4907540;28;45383;-75
2021/07/29 11:11:42;;;;;;;;;3.75;1.00;;;;;21.54;48.33;101343.63;4933704;28;45800;-75
2021/07/29 11:14:08;;;;;;;;;1.00;1.00;;;;;21.56;47.56;101340.81;4922925;28;45606;-74
2021/07/29 11:16:34;;;;;;;;;2.00;1.75;;;;;21.54;47.32;101340.06;4921038;28;45446;-75
2021/07/29 11:19:02;;;;;;;;;1.50;1.50;;;;;21.51;48.47;101334.97;4923101;28;45583;-74
2021/07/29 11:21:27;;;;;;;;;2.00;1.25;;;;;21.50;47.96;101333.25;4921411;28;46904;-75
2021/07/29 11:23:53;;;;;;;;;1.50;1.00;;;;;21.49;46.59;101337.72;4922359;28;45248;-75
2021/07/29 11:26:18;;;;;;;;;2.00;2.00;;;;;21.48;48.35;101330.69;4922862;28;45345;-75